createdAt,value
2022-11-06T00:03:07.206Z,18.20
2022-11-06T00:06:51.521Z,17.60
2022-11-06T00:13:45.073Z,19.70
2022-11-06T00:17:13.352Z,21.60
2022-11-06T00:20:41.082Z,21.60
2022-11-06T00:24:10.394Z,19.50
2022-11-06T00:27:39.654Z,20.10
2022-11-06T00:31:09.928Z,20.80
2022-11-06T00:34:38.047Z,19.30
2022-11-06T00:38:04.545Z,17.80
2022-11-06T00:41:31.834Z,18.40
2022-11-06T00:44:58.688Z,19.20
2022-11-06T00:48:25.655Z,17.90
2022-11-06T00:51:52.928Z,17.30
2022-11-06T00:55:19.509Z,17.90
2022-11-06T00:58:47.153Z,19.50
2022-11-06T01:02:19.813Z,21.30
2022-11-06T01:05:47.035Z,21.60
2022-11-06T01:09:15.845Z,21.10
2022-11-06T01:12:42.721Z,22.90
2022-11-06T01:16:12.698Z,20.90
2022-11-06T01:19:39.714Z,21.50
2022-11-06T01:23:06.398Z,20.50
2022-11-06T01:26:38.540Z,22.70
2022-11-06T01:30:08.321Z,24.70
2022-11-06T01:33:35.167Z,28.00
2022-11-06T01:37:04.459Z,25.60
2022-11-06T01:40:31.948Z,24.10
2022-11-06T01:44:01.695Z,24.00
2022-11-06T01:47:31.174Z,23.30
2022-11-06T01:50:59.638Z,22.70
2022-11-06T01:54:29.694Z,21.20
2022-11-06T01:57:59.632Z,20.00
2022-11-06T02:01:26.723Z,19.00
2022-11-06T02:04:53.963Z,18.40
2022-11-06T02:08:23.220Z,20.20
2022-11-06T02:11:53.046Z,17.90
2022-11-06T02:15:28.772Z,17.80
2022-11-06T02:19:14.625Z,17.60
2022-11-06T02:23:10.222Z,18.00
2022-11-06T02:27:07.354Z,19.70
2022-11-06T02:30:40.397Z,18.40
2022-11-06T02:34:13.605Z,19.60
2022-11-06T02:37:43.727Z,21.30
2022-11-06T02:41:14.153Z,20.10
2022-11-06T02:44:42.039Z,18.40
2022-11-06T02:48:11.884Z,20.10
2022-11-06T02:51:43.473Z,21.80
2022-11-06T02:55:15.847Z,25.20
2022-11-06T02:58:49.157Z,27.20
2022-11-06T03:02:20.492Z,29.50
2022-11-06T03:05:53.956Z,20.20
2022-11-06T03:09:26.084Z,24.50
2022-11-06T03:13:00.812Z,31.10
2022-11-06T03:16:44.680Z,28.40
2022-11-06T03:20:26.570Z,27.90
2022-11-06T03:23:57.509Z,24.90
2022-11-06T03:27:30.102Z,25.70
2022-11-06T03:31:00.936Z,20.90
2022-11-06T03:34:37.985Z,18.80
2022-11-06T03:38:09.755Z,18.00
2022-11-06T03:41:44.053Z,23.20
2022-11-06T03:45:15.215Z,18.50
2022-11-06T03:48:46.565Z,20.60
2022-11-06T03:52:17.867Z,21.80
2022-11-06T03:55:51.474Z,22.90
2022-11-06T03:59:23.644Z,25.40
2022-11-06T04:03:05.231Z,31.50
2022-11-06T04:06:37.725Z,29.00
2022-11-06T04:10:24.691Z,26.90
2022-11-06T04:14:01.225Z,20.40
2022-11-06T04:17:31.049Z,19.70
2022-11-06T04:21:26.304Z,16.40
2022-11-06T04:25:24.390Z,15.30
2022-11-06T04:29:03.479Z,16.20
2022-11-06T04:32:39.133Z,14.40
2022-11-06T04:36:17.936Z,15.60
2022-11-06T04:39:57.874Z,14.90
2022-11-06T04:43:35.729Z,14.40
2022-11-06T04:47:07.126Z,14.40
2022-11-06T04:50:38.335Z,17.20
2022-11-06T04:54:05.875Z,16.20
2022-11-06T04:57:33.145Z,17.50
2022-11-06T05:01:00.533Z,17.50
2022-11-06T05:04:27.632Z,18.20
2022-11-06T05:07:54.462Z,14.90
2022-11-06T05:11:21.147Z,14.40
2022-11-06T05:14:48.020Z,14.50
2022-11-06T05:18:15.351Z,14.20
2022-11-06T05:22:00.146Z,12.70
2022-11-06T05:25:27.061Z,14.10
2022-11-06T05:28:53.772Z,16.70
2022-11-06T05:32:20.519Z,17.40
2022-11-06T05:35:47.073Z,17.00
2022-11-06T05:39:14.360Z,13.90
2022-11-06T05:42:42.227Z,14.80
2022-11-06T05:46:29.663Z,13.40
2022-11-06T05:49:56.679Z,14.00
2022-11-06T05:53:23.920Z,13.50
2022-11-06T05:56:50.690Z,12.60
2022-11-06T06:00:18.581Z,13.30
2022-11-06T06:03:45.305Z,11.50
2022-11-06T06:07:12.422Z,12.00
2022-11-06T06:10:41.889Z,13.50
2022-11-06T06:14:08.829Z,15.30
2022-11-06T06:17:37.183Z,16.40
2022-11-06T06:21:04.164Z,19.10
2022-11-06T06:24:31.224Z,18.30
2022-11-06T06:27:59.098Z,20.70
2022-11-06T06:31:27.081Z,17.80
2022-11-06T06:34:55.341Z,18.50
2022-11-06T06:38:26.139Z,20.20
2022-11-06T06:41:52.867Z,21.30
2022-11-06T06:45:20.090Z,20.40
2022-11-06T06:48:47.099Z,19.20
2022-11-06T06:52:14.874Z,18.60
2022-11-06T06:55:42.342Z,17.20
2022-11-06T06:59:09.657Z,13.60
2022-11-06T07:02:36.764Z,14.10
2022-11-06T07:06:06.017Z,16.70
2022-11-06T07:09:34.793Z,16.30
2022-11-06T07:13:03.859Z,17.20
2022-11-06T07:16:32.851Z,17.60
2022-11-06T07:19:59.827Z,16.10
2022-11-06T07:23:29.226Z,17.10
2022-11-06T07:26:56.114Z,22.20
2022-11-06T07:30:23.334Z,26.00
2022-11-06T07:33:50.488Z,26.70
2022-11-06T07:37:17.568Z,24.00
2022-11-06T07:40:45.258Z,23.80
2022-11-06T07:44:13.077Z,23.40
2022-11-06T07:47:42.902Z,20.60
2022-11-06T07:51:12.683Z,18.40
2022-11-06T07:54:39.409Z,17.60
2022-11-06T07:58:06.460Z,18.10
2022-11-06T08:01:33.763Z,16.70
2022-11-06T08:05:01.107Z,17.90
2022-11-06T08:08:29.006Z,16.30
2022-11-06T08:11:55.756Z,15.90
2022-11-06T08:15:23.028Z,14.90
2022-11-06T08:18:49.800Z,14.90
2022-11-06T08:22:16.908Z,14.60
2022-11-06T08:25:44.185Z,15.20
2022-11-06T08:29:11.030Z,14.70
2022-11-06T08:32:38.170Z,16.30
2022-11-06T08:36:06.335Z,14.50
2022-11-06T08:39:33.362Z,16.30
2022-11-06T08:43:04.156Z,17.90
2022-11-06T08:46:31.409Z,17.40
2022-11-06T08:49:58.717Z,16.50
2022-11-06T08:53:25.603Z,15.00
2022-11-06T08:56:52.518Z,16.50
2022-11-06T09:00:23.260Z,16.20
2022-11-06T09:03:50.225Z,16.50
2022-11-06T09:07:17.622Z,15.70
2022-11-06T09:10:45.077Z,17.20
2022-11-06T09:14:12.043Z,20.10
2022-11-06T09:17:45.550Z,20.20
2022-11-06T09:21:12.967Z,21.40
2022-11-06T09:25:01.860Z,21.20
2022-11-06T09:28:26.421Z,17.00
2022-11-06T09:31:54.656Z,16.00
2022-11-06T09:35:22.823Z,14.60
2022-11-06T09:38:53.724Z,15.00
2022-11-06T09:42:32.537Z,15.30
2022-11-06T09:46:15.030Z,13.10
2022-11-06T09:49:50.205Z,11.90
2022-11-06T09:53:21.888Z,10.10
2022-11-06T09:56:57.139Z,10.50
2022-11-06T10:00:24.661Z,11.10
2022-11-06T10:03:56.522Z,12.00
2022-11-06T10:07:29.184Z,10.20
2022-11-06T10:11:05.619Z,9.10
2022-11-06T10:14:45.511Z,9.80
2022-11-06T10:18:21.019Z,9.40
2022-11-06T10:21:57.892Z,9.20
2022-11-06T10:25:32.543Z,8.80
2022-11-06T10:29:20.074Z,9.20
2022-11-06T10:33:05.500Z,8.10
2022-11-06T10:36:38.251Z,6.50
2022-11-06T10:40:08.628Z,6.40
2022-11-06T10:43:42.777Z,6.80
2022-11-06T10:47:19.796Z,6.30
2022-11-06T10:51:00.950Z,6.00
2022-11-06T10:54:46.594Z,6.50
2022-11-06T10:58:16.985Z,5.60
2022-11-06T11:01:47.784Z,6.50
2022-11-06T11:05:18.110Z,5.90
2022-11-06T11:08:47.042Z,6.70
2022-11-06T11:12:27.055Z,6.80
2022-11-06T11:15:55.350Z,6.00
2022-11-06T11:19:35.451Z,6.30
2022-11-06T11:23:18.061Z,5.80
2022-11-06T11:26:48.594Z,5.30
2022-11-06T11:30:26.622Z,5.40
2022-11-06T11:33:56.771Z,7.60
2022-11-06T11:37:29.663Z,6.90
2022-11-06T11:41:09.654Z,5.90
2022-11-06T11:44:37.800Z,5.50
2022-11-06T11:48:16.607Z,4.60
2022-11-06T11:51:46.315Z,4.20
2022-11-06T11:55:21.266Z,5.20
2022-11-06T11:58:56.670Z,4.40
2022-11-06T12:02:29.875Z,4.00
2022-11-06T12:06:05.249Z,4.30
2022-11-06T12:09:46.615Z,4.20
2022-11-06T12:13:23.076Z,4.00
2022-11-06T12:16:54.360Z,5.20
2022-11-06T12:20:26.237Z,4.80
2022-11-06T12:23:59.996Z,4.90
2022-11-06T12:27:30.134Z,5.70
2022-11-06T12:31:05.835Z,5.90
2022-11-06T12:34:39.940Z,6.80
2022-11-06T12:38:20.622Z,7.40
2022-11-06T12:41:52.238Z,7.00
2022-11-06T12:45:20.200Z,7.10
2022-11-06T12:49:16.983Z,7.70
2022-11-06T12:53:02.060Z,7.50
2022-11-06T12:56:44.541Z,9.50
2022-11-06T13:00:16.924Z,7.70
2022-11-06T13:04:10.470Z,6.90
2022-11-06T13:08:03.009Z,7.60
2022-11-06T13:11:40.369Z,5.40
2022-11-06T13:15:20.357Z,5.60
2022-11-06T13:18:53.536Z,6.70
2022-11-06T13:25:59.422Z,6.80
2022-11-06T13:29:28.297Z,7.70
2022-11-06T13:33:04.979Z,9.50
2022-11-06T13:36:37.002Z,8.80
2022-11-06T13:40:07.175Z,8.60
2022-11-06T13:43:39.255Z,8.60
2022-11-06T13:47:15.780Z,8.60
2022-11-06T13:50:51.805Z,9.70
2022-11-06T13:54:42.538Z,10.60
2022-11-06T13:58:32.901Z,11.10
2022-11-06T14:02:13.662Z,11.10
2022-11-06T14:05:58.068Z,9.70
2022-11-06T14:09:28.134Z,17.10
2022-11-06T14:12:55.544Z,12.80
2022-11-06T14:16:34.320Z,12.50
2022-11-06T14:20:09.064Z,13.20
2022-11-06T14:23:57.367Z,13.70
2022-11-06T14:27:58.752Z,13.20
2022-11-06T14:31:56.389Z,11.20
2022-11-06T14:35:52.331Z,19.70
2022-11-06T14:39:39.995Z,13.00
2022-11-06T14:43:19.550Z,12.60
2022-11-06T14:46:53.102Z,11.30
2022-11-06T14:53:59.256Z,12.00
2022-11-06T14:57:43.530Z,13.00
2022-11-06T15:01:25.518Z,12.80
2022-11-06T15:05:00.253Z,12.80
2022-11-06T15:08:55.665Z,13.90
2022-11-06T15:12:42.191Z,26.60
2022-11-06T15:16:14.601Z,34.30
2022-11-06T15:19:47.704Z,84.10
2022-11-06T15:23:24.999Z,79.50
2022-11-06T15:26:55.757Z,80.70
2022-11-06T15:30:23.484Z,77.50
2022-11-06T15:33:58.155Z,75.90
2022-11-06T15:37:31.389Z,70.70
2022-11-06T15:40:58.292Z,68.00
2022-11-06T15:44:26.841Z,59.00
2022-11-06T15:48:02.443Z,49.20
2022-11-06T15:51:30.833Z,39.90
2022-11-06T15:54:59.897Z,26.30
2022-11-06T15:58:33.833Z,21.60
2022-11-06T16:02:05.891Z,17.80
2022-11-06T16:05:36.416Z,15.50
2022-11-06T16:09:04.218Z,14.70
2022-11-06T16:12:31.688Z,13.50
2022-11-06T16:16:01.601Z,16.80
2022-11-06T16:19:34.394Z,26.40
2022-11-06T16:23:06.692Z,38.10
2022-11-06T16:26:44.471Z,39.70
2022-11-06T16:30:25.686Z,29.90
2022-11-06T16:34:00.908Z,21.60
2022-11-06T16:37:41.156Z,17.50
2022-11-06T16:41:09.465Z,18.50
2022-11-06T16:44:49.539Z,18.00
2022-11-06T16:48:35.930Z,18.30
2022-11-06T16:52:03.396Z,20.70
2022-11-06T16:55:34.700Z,18.70
2022-11-06T16:59:08.057Z,17.60
2022-11-06T17:02:40.569Z,15.40
2022-11-06T17:06:08.809Z,18.50
2022-11-06T17:09:37.717Z,17.30
2022-11-06T17:13:15.454Z,16.10
2022-11-06T17:16:51.777Z,15.00
2022-11-06T17:20:21.813Z,15.00
2022-11-06T17:23:51.325Z,15.60
2022-11-06T17:27:22.086Z,15.60
2022-11-06T17:30:52.905Z,15.80
2022-11-06T17:34:21.709Z,16.20
2022-11-06T17:37:49.727Z,16.50
2022-11-06T17:41:30.255Z,15.80
2022-11-06T17:45:04.384Z,15.20
2022-11-06T17:48:34.340Z,15.70
2022-11-06T17:52:07.296Z,15.60
2022-11-06T17:55:34.775Z,16.30
2022-11-06T17:59:01.446Z,16.80
2022-11-06T18:02:54.986Z,15.00
2022-11-06T18:06:17.656Z,16.50
2022-11-06T18:09:44.694Z,16.70
2022-11-06T18:13:11.457Z,19.30
2022-11-06T18:16:44.132Z,19.00
2022-11-06T18:20:14.116Z,19.40
2022-11-06T18:23:41.861Z,21.90
2022-11-06T18:27:09.451Z,23.00
2022-11-06T18:30:41.357Z,22.60
2022-11-06T18:34:12.950Z,21.90
2022-11-06T18:37:47.180Z,21.60
2022-11-06T18:41:16.399Z,20.40
2022-11-06T18:44:46.735Z,21.70
2022-11-06T18:48:17.155Z,21.60
2022-11-06T18:51:47.994Z,21.80
2022-11-06T18:55:17.421Z,21.20
2022-11-06T18:58:45.724Z,21.40
2022-11-06T19:02:15.182Z,21.30
2022-11-06T19:05:57.517Z,20.50
2022-11-06T19:09:25.423Z,25.20
2022-11-06T19:12:52.609Z,26.30
2022-11-06T19:16:20.607Z,32.40
2022-11-06T19:19:50.549Z,32.60
2022-11-06T19:23:24.876Z,29.10
2022-11-06T19:26:53.147Z,38.20
2022-11-06T19:30:23.545Z,34.20
2022-11-06T19:33:54.003Z,29.50
2022-11-06T19:37:24.465Z,26.10
2022-11-06T19:41:04.235Z,23.30
2022-11-06T19:44:31.627Z,23.30
2022-11-06T19:48:02.209Z,22.70
2022-11-06T19:51:34.200Z,30.80
2022-11-06T19:55:24.928Z,30.80
2022-11-06T19:58:55.404Z,23.70
2022-11-06T20:02:42.225Z,20.80
2022-11-06T20:06:15.431Z,21.20
2022-11-06T20:09:44.657Z,19.60
2022-11-06T20:13:16.974Z,18.40
2022-11-06T20:16:45.740Z,18.20
2022-11-06T20:20:16.049Z,18.90
2022-11-06T20:23:45.027Z,17.70
2022-11-06T20:27:13.325Z,19.00
2022-11-06T20:30:45.283Z,18.20
2022-11-06T20:34:12.950Z,17.80
2022-11-06T20:37:40.328Z,17.60
2022-11-06T20:41:07.007Z,17.40
2022-11-06T20:44:36.734Z,17.50
2022-11-06T20:48:11.023Z,17.90
2022-11-06T20:52:07.385Z,17.70
2022-11-06T20:55:31.959Z,17.50
2022-11-06T20:59:03.280Z,16.90
2022-11-06T21:02:36.377Z,16.10
2022-11-06T21:06:03.759Z,14.40
2022-11-06T21:09:33.394Z,15.60
2022-11-06T21:13:04.522Z,14.80
2022-11-06T21:16:42.577Z,15.50
2022-11-06T21:20:16.983Z,14.90
2022-11-06T21:23:51.821Z,14.20
2022-11-06T21:27:20.856Z,14.40
2022-11-06T21:30:51.982Z,17.20
2022-11-06T21:34:21.072Z,16.00
2022-11-06T21:37:55.088Z,16.30
2022-11-06T21:41:27.655Z,17.00
2022-11-06T21:44:58.755Z,17.10
2022-11-06T21:48:45.360Z,17.30
2022-11-06T21:52:33.667Z,16.80
2022-11-06T21:56:08.139Z,16.60
2022-11-06T21:59:38.991Z,17.60
2022-11-06T22:06:33.615Z,18.70
2022-11-06T22:10:00.607Z,20.00
2022-11-06T22:13:27.561Z,19.70
2022-11-06T22:16:55.439Z,21.50
2022-11-06T22:20:23.919Z,22.30
2022-11-06T22:23:51.084Z,21.40
2022-11-06T22:27:21.581Z,21.80
2022-11-06T22:30:48.331Z,22.60
2022-11-06T22:34:15.826Z,23.00
2022-11-06T22:38:10.473Z,22.20
2022-11-06T22:41:37.549Z,21.90
2022-11-06T22:45:06.403Z,20.80
2022-11-06T22:48:34.895Z,19.80
2022-11-06T22:52:01.626Z,20.20
2022-11-06T22:55:28.428Z,21.20
2022-11-06T22:58:58.356Z,19.60
2022-11-06T23:02:25.558Z,19.30
2022-11-06T23:05:52.725Z,18.80
2022-11-06T23:09:19.865Z,19.00
2022-11-06T23:12:49.444Z,20.80
2022-11-06T23:16:43.317Z,19.00
2022-11-06T23:20:12.020Z,20.50
2022-11-06T23:23:39.081Z,18.20
2022-11-06T23:27:06.765Z,18.30
2022-11-06T23:30:34.107Z,17.60
2022-11-06T23:34:01.317Z,18.50
2022-11-06T23:37:28.987Z,18.50
2022-11-06T23:41:19.580Z,18.80
2022-11-06T23:45:05.577Z,19.30
2022-11-06T23:48:32.937Z,20.30
2022-11-06T23:52:08.953Z,19.20
2022-11-06T23:55:37.545Z,19.50
2022-11-06T23:59:06.631Z,20.20
